BON278K FACT-LLBG
Flight info
| Callsign | BON278K |
|---|---|
| Flight time | N/A |
| Altitude | 35000 |
| Route | KODES1A KODES UZ30 IMKIV UT916 VLS UA409 KMI UY198 KNM UB527 OVELA L567 IMDUR M320 EGTAD M565 SISID Z822 ITNAR A727 LXR L604 ASRAB R650 NALSO J10 ZFR T94 MZD J10 TOMAL T99 SALAM |
| Aircraft | A339/H-SADE1E2E3GHIJ3J5M1P2RWXY/LB2D1 |
Departure
| Time | 2026-05-04 21:35 |
|---|---|
| Airport | Cape Town International Airport (FACT) |
Arrival
| Time | N/A |
|---|---|
| Airport | Ben Gurion International Airport (LLBG) |
| Time | Latitude | Longitude | Altitude | Speed | Heading |
|---|---|---|---|---|---|
| 2026-05-04 21:18 | -33.96771 | 18.59763 | 170 ft | 0 kts | 254° |
| 2026-05-04 21:23 | -33.96770 | 18.59767 | 170 ft | 2 kts | 254° |
| 2026-05-04 21:23 | -33.96763 | 18.59796 | 170 ft | 3 kts | 254° |
| 2026-05-04 21:24 | -33.96755 | 18.59827 | 170 ft | 3 kts | 248° |
| 2026-05-04 21:24 | -33.96741 | 18.59843 | 170 ft | 2 kts | 201° |
| 2026-05-04 21:24 | -33.96721 | 18.59843 | 169 ft | 2 kts | 160° |
| 2026-05-04 21:24 | -33.96717 | 18.59842 | 169 ft | 0 kts | 160° |
| 2026-05-04 21:28 | -33.96725 | 18.59845 | 169 ft | 2 kts | 160° |
| 2026-05-04 21:28 | -33.96763 | 18.59860 | 170 ft | 10 kts | 165° |
| 2026-05-04 21:29 | -33.96865 | 18.59892 | 171 ft | 16 kts | 165° |
| 2026-05-04 21:29 | -33.96978 | 18.59925 | 169 ft | 17 kts | 162° |
| 2026-05-04 21:29 | -33.97095 | 18.59966 | 168 ft | 17 kts | 170° |
| 2026-05-04 21:29 | -33.97213 | 18.59993 | 167 ft | 17 kts | 167° |
| 2026-05-04 21:30 | -33.97337 | 18.60027 | 165 ft | 18 kts | 167° |
| 2026-05-04 21:30 | -33.97463 | 18.60071 | 165 ft | 18 kts | 162° |
| 2026-05-04 21:30 | -33.97586 | 18.60118 | 163 ft | 17 kts | 161° |
| 2026-05-04 21:30 | -33.97703 | 18.60185 | 161 ft | 18 kts | 154° |
| 2026-05-04 21:31 | -33.97955 | 18.60297 | 158 ft | 18 kts | 160° |
| 2026-05-04 21:31 | -33.98079 | 18.60349 | 158 ft | 18 kts | 160° |
| 2026-05-04 21:31 | -33.98198 | 18.60399 | 158 ft | 17 kts | 161° |
| 2026-05-04 21:32 | -33.98313 | 18.60447 | 158 ft | 17 kts | 160° |
| 2026-05-04 21:32 | -33.98428 | 18.60498 | 158 ft | 17 kts | 160° |
| 2026-05-04 21:32 | -33.98541 | 18.60544 | 158 ft | 17 kts | 160° |
| 2026-05-04 21:32 | -33.98655 | 18.60593 | 158 ft | 17 kts | 160° |
| 2026-05-04 21:33 | -33.98767 | 18.60646 | 158 ft | 17 kts | 149° |
| 2026-05-04 21:33 | -33.98794 | 18.60756 | 160 ft | 14 kts | 70° |
| 2026-05-04 21:33 | -33.98747 | 18.60848 | 162 ft | 12 kts | 33° |
| 2026-05-04 21:33 | -33.98663 | 18.60858 | 162 ft | 12 kts | 345° |
| 2026-05-04 21:34 | -33.98547 | 18.60820 | 162 ft | 37 kts | 345° |
| 2026-05-04 21:34 | -33.98054 | 18.60665 | 162 ft | 106 kts | 346° |
| 2026-05-04 21:34 | -33.97147 | 18.60382 | 167 ft | 161 kts | 345° |
| 2026-05-04 21:34 | -33.96009 | 18.60009 | 665 ft | 171 kts | 345° |
| 2026-05-04 21:35 | -33.94857 | 18.59636 | 1292 ft | 173 kts | 345° |
| 2026-05-04 21:35 | -33.93644 | 18.59265 | 1793 ft | 187 kts | 345° |
| 2026-05-04 21:35 | -33.92363 | 18.58872 | 2265 ft | 194 kts | 345° |
| 2026-05-04 21:35 | -33.91056 | 18.58347 | 2751 ft | 200 kts | 330° |
| 2026-05-04 21:36 | -33.89905 | 18.57355 | 3190 ft | 210 kts | 313° |
| 2026-05-04 21:36 | -33.88946 | 18.55934 | 3470 ft | 229 kts | 309° |
| 2026-05-04 21:36 | -33.87855 | 18.54427 | 3742 ft | 248 kts | 304° |
| 2026-05-04 21:36 | -33.87124 | 18.52474 | 4230 ft | 259 kts | 290° |
| 2026-05-04 21:37 | -33.86250 | 18.50625 | 4907 ft | 260 kts | 314° |
| 2026-05-04 21:37 | -33.84690 | 18.49582 | 5582 ft | 263 kts | 348° |
| 2026-05-04 21:37 | -33.82866 | 18.49802 | 6216 ft | 271 kts | 22° |
| 2026-05-04 21:37 | -33.81270 | 18.51126 | 6861 ft | 277 kts | 41° |
| 2026-05-04 21:38 | -33.79834 | 18.52787 | 7493 ft | 280 kts | 39° |
| 2026-05-04 21:38 | -33.78335 | 18.54361 | 8107 ft | 282 kts | 36° |
| 2026-05-04 21:38 | -33.76786 | 18.55826 | 8717 ft | 284 kts | 33° |
| 2026-05-04 21:38 | -33.75188 | 18.57232 | 9309 ft | 286 kts | 32° |
| 2026-05-04 21:39 | -33.73557 | 18.58611 | 9900 ft | 289 kts | 31° |
| 2026-05-04 21:39 | -33.71867 | 18.60009 | 10422 ft | 295 kts | 31° |
| 2026-05-04 21:39 | -33.70120 | 18.61435 | 10697 ft | 310 kts | 31° |
| 2026-05-04 21:39 | -33.68294 | 18.62916 | 10962 ft | 324 kts | 31° |
| 2026-05-04 21:40 | -33.66374 | 18.64474 | 11223 ft | 339 kts | 31° |
| 2026-05-04 21:40 | -33.64366 | 18.66099 | 11481 ft | 353 kts | 31° |
| 2026-05-04 21:40 | -33.62277 | 18.67792 | 11832 ft | 364 kts | 31° |
| 2026-05-04 21:40 | -33.60117 | 18.69417 | 12396 ft | 365 kts | 22° |
| 2026-05-04 21:41 | -33.57703 | 18.70228 | 13004 ft | 360 kts | 4° |
| 2026-05-04 21:41 | -33.55233 | 18.70514 | 13627 ft | 361 kts | 1° |
| 2026-05-04 21:41 | -33.52695 | 18.70740 | 14204 ft | 365 kts | 1° |
| 2026-05-04 21:41 | -33.50161 | 18.70987 | 14804 ft | 367 kts | 1° |
| 2026-05-04 21:42 | -33.47608 | 18.71270 | 15415 ft | 368 kts | 2° |
| 2026-05-04 21:42 | -33.45031 | 18.71579 | 16054 ft | 369 kts | 2° |
| 2026-05-04 21:42 | -33.42477 | 18.71896 | 16661 ft | 370 kts | 2° |
| 2026-05-04 21:42 | -33.39909 | 18.72223 | 17220 ft | 372 kts | 1° |
| 2026-05-04 21:43 | -33.37269 | 18.72564 | 17699 ft | 377 kts | 1° |
| 2026-05-04 21:43 | -33.34534 | 18.72913 | 18012 ft | 386 kts | 1° |
| 2026-05-04 21:43 | -33.31755 | 18.73272 | 18566 ft | 388 kts | 1° |
| 2026-05-04 21:43 | -33.29062 | 18.73623 | 19155 ft | 389 kts | 1° |
| 2026-05-04 21:44 | -33.26351 | 18.73976 | 19692 ft | 391 kts | 1° |
| 2026-05-04 21:44 | -33.23647 | 18.74326 | 20170 ft | 394 kts | 1° |
| 2026-05-04 21:44 | -33.20908 | 18.74682 | 20674 ft | 395 kts | 1° |
| 2026-05-04 21:44 | -33.18048 | 18.75068 | 21174 ft | 399 kts | 2° |
| 2026-05-04 21:45 | -33.15184 | 18.75755 | 21623 ft | 406 kts | 9° |
| 2026-05-04 21:45 | -33.12367 | 18.76820 | 22113 ft | 412 kts | 14° |
| 2026-05-04 21:45 | -33.09579 | 18.78250 | 22601 ft | 416 kts | 18° |
| 2026-05-04 21:45 | -33.06831 | 18.79770 | 23033 ft | 419 kts | 18° |
| 2026-05-04 21:46 | -33.04097 | 18.81299 | 23438 ft | 421 kts | 18° |
| 2026-05-04 21:46 | -33.01356 | 18.82831 | 23795 ft | 424 kts | 18° |
| 2026-05-04 21:46 | -32.98687 | 18.84322 | 24167 ft | 426 kts | 18° |
| 2026-05-04 21:46 | -32.95814 | 18.85922 | 24570 ft | 428 kts | 18° |
| 2026-05-04 21:47 | -32.93107 | 18.87428 | 24940 ft | 430 kts | 18° |
| 2026-05-04 21:47 | -32.90385 | 18.88939 | 25260 ft | 432 kts | 18° |
| 2026-05-04 21:47 | -32.87676 | 18.90444 | 25649 ft | 433 kts | 17° |
| 2026-05-04 21:47 | -32.84890 | 18.91989 | 26038 ft | 434 kts | 18° |
| 2026-05-04 21:48 | -32.82133 | 18.93517 | 26373 ft | 436 kts | 17° |
| 2026-05-04 21:48 | -32.79394 | 18.95033 | 26701 ft | 438 kts | 17° |
| 2026-05-04 21:48 | -32.76614 | 18.96571 | 27075 ft | 439 kts | 17° |
| 2026-05-04 21:48 | -32.73826 | 18.98113 | 27369 ft | 441 kts | 17° |
| 2026-05-04 21:49 | -32.71049 | 18.99651 | 27804 ft | 439 kts | 17° |
| 2026-05-04 21:49 | -32.68281 | 19.01182 | 28294 ft | 437 kts | 17° |
| 2026-05-04 21:49 | -32.65644 | 19.02639 | 28710 ft | 435 kts | 16° |
| 2026-05-04 21:49 | -32.62880 | 19.04163 | 29129 ft | 434 kts | 16° |
| 2026-05-04 21:50 | -32.60133 | 19.05676 | 29534 ft | 433 kts | 16° |
| 2026-05-04 21:50 | -32.58329 | 19.06670 | 29753 ft | 433 kts | 16° |
| 2026-05-04 21:50 | -32.54678 | 19.08676 | 30183 ft | 433 kts | 16° |
| 2026-05-04 21:50 | -32.51958 | 19.10172 | 30560 ft | 430 kts | 16° |
| 2026-05-04 21:51 | -32.49260 | 19.11654 | 30928 ft | 428 kts | 16° |
| 2026-05-04 21:51 | -32.46548 | 19.13143 | 31229 ft | 428 kts | 16° |
| 2026-05-04 21:51 | -32.44730 | 19.14140 | 31431 ft | 427 kts | 16° |
| 2026-05-04 21:51 | -32.41150 | 19.16106 | 31748 ft | 427 kts | 15° |
| 2026-05-04 21:52 | -32.38460 | 19.17578 | 31972 ft | 427 kts | 15° |
| 2026-05-04 21:52 | -32.35754 | 19.19060 | 32183 ft | 428 kts | 16° |
| 2026-05-04 21:52 | -32.33056 | 19.20536 | 32377 ft | 428 kts | 15° |
| 2026-05-04 21:52 | -32.31229 | 19.21537 | 32535 ft | 428 kts | 15° |
| 2026-05-04 21:53 | -32.27645 | 19.23497 | 32852 ft | 427 kts | 15° |
| 2026-05-04 21:53 | -32.24959 | 19.24964 | 33033 ft | 428 kts | 15° |
| 2026-05-04 21:53 | -32.22239 | 19.26446 | 33177 ft | 430 kts | 15° |
| 2026-05-04 21:53 | -32.19485 | 19.27945 | 33368 ft | 430 kts | 15° |
| 2026-05-04 21:54 | -32.16793 | 19.29413 | 33579 ft | 431 kts | 15° |
| 2026-05-04 21:54 | -32.14058 | 19.30903 | 33796 ft | 432 kts | 15° |
| 2026-05-04 21:54 | -32.11308 | 19.32397 | 33957 ft | 433 kts | 15° |
| 2026-05-04 21:54 | -32.08589 | 19.33877 | 34136 ft | 435 kts | 15° |
| 2026-05-04 21:55 | -32.05825 | 19.35381 | 34332 ft | 436 kts | 15° |
| 2026-05-04 21:55 | -32.03063 | 19.36885 | 34550 ft | 436 kts | 15° |
| 2026-05-04 21:55 | -32.00297 | 19.38385 | 34758 ft | 436 kts | 14° |
| 2026-05-04 21:55 | -31.97570 | 19.39866 | 34942 ft | 436 kts | 15° |
| 2026-05-04 21:56 | -31.94813 | 19.41358 | 35002 ft | 437 kts | 15° |
| 2026-05-04 21:56 | -31.89254 | 19.44369 | 35011 ft | 437 kts | 14° |
| 2026-05-04 21:57 | -31.83732 | 19.47358 | 35011 ft | 437 kts | 14° |
| 2026-05-04 21:57 | -31.78273 | 19.50305 | 34999 ft | 437 kts | 14° |
| 2026-05-04 21:58 | -31.72736 | 19.53293 | 35013 ft | 439 kts | 14° |
| 2026-05-04 21:58 | -31.67203 | 19.56274 | 35007 ft | 437 kts | 14° |
| 2026-05-04 21:59 | -31.61671 | 19.59253 | 35008 ft | 437 kts | 14° |
| 2026-05-04 21:59 | -31.56138 | 19.62226 | 35010 ft | 437 kts | 14° |
| 2026-05-04 22:00 | -31.50724 | 19.65133 | 35007 ft | 437 kts | 14° |
| 2026-05-04 22:00 | -31.45192 | 19.68098 | 35000 ft | 437 kts | 13° |
| 2026-05-04 22:01 | -31.39660 | 19.71061 | 35008 ft | 436 kts | 13° |
| 2026-05-04 22:01 | -31.34111 | 19.74027 | 35008 ft | 436 kts | 13° |
| 2026-05-04 22:02 | -31.28598 | 19.76972 | 35016 ft | 436 kts | 13° |
| 2026-05-04 22:02 | -31.23073 | 19.79919 | 35017 ft | 434 kts | 13° |
| 2026-05-04 22:03 | -31.17585 | 19.82841 | 35001 ft | 436 kts | 13° |
| 2026-05-04 22:03 | -31.12030 | 19.85794 | 35016 ft | 436 kts | 13° |
| 2026-05-04 22:04 | -31.06500 | 19.88733 | 35011 ft | 437 kts | 13° |
| 2026-05-04 22:04 | -31.01009 | 19.91648 | 35005 ft | 436 kts | 12° |
| 2026-05-04 22:05 | -30.95590 | 19.94518 | 35008 ft | 433 kts | 13° |
| 2026-05-04 22:05 | -30.90056 | 19.97444 | 35011 ft | 435 kts | 13° |
| 2026-05-04 22:06 | -30.84559 | 20.00350 | 35010 ft | 436 kts | 13° |
| 2026-05-04 22:06 | -30.79026 | 20.03270 | 35008 ft | 435 kts | 13° |
| 2026-05-04 22:07 | -30.73398 | 20.06239 | 35008 ft | 435 kts | 13° |
| 2026-05-04 22:07 | -30.67855 | 20.09157 | 35009 ft | 436 kts | 13° |
| 2026-05-04 22:08 | -30.62327 | 20.12066 | 35009 ft | 437 kts | 13° |
| 2026-05-04 22:08 | -30.56767 | 20.14987 | 35011 ft | 437 kts | 13° |
| 2026-05-04 22:09 | -30.51208 | 20.17903 | 35013 ft | 436 kts | 13° |
| 2026-05-04 22:09 | -30.45706 | 20.20784 | 35005 ft | 436 kts | 13° |
| 2026-05-04 22:10 | -30.40122 | 20.23702 | 35002 ft | 437 kts | 13° |
| 2026-05-04 22:10 | -30.34588 | 20.26597 | 35002 ft | 437 kts | 13° |
| 2026-05-04 22:11 | -30.28999 | 20.29515 | 34787 ft | 438 kts | 13° |
| 2026-05-04 22:11 | -30.26236 | 20.30955 | 34892 ft | 439 kts | 13° |
| 2026-05-04 22:11 | -30.23414 | 20.32423 | 34964 ft | 439 kts | 13° |
| 2026-05-04 22:12 | -30.17840 | 20.35330 | 35000 ft | 438 kts | 13° |
| 2026-05-04 22:12 | -30.12272 | 20.38225 | 35022 ft | 437 kts | 13° |
| 2026-05-04 22:13 | -30.06694 | 20.41124 | 35028 ft | 439 kts | 13° |
| 2026-05-04 22:13 | -30.01100 | 20.44025 | 35026 ft | 439 kts | 13° |
| 2026-05-04 22:14 | -29.95585 | 20.46885 | 35059 ft | 437 kts | 13° |
| 2026-05-04 22:14 | -29.90005 | 20.49773 | 35012 ft | 438 kts | 13° |
| 2026-05-04 22:15 | -29.84437 | 20.52650 | 35008 ft | 438 kts | 13° |
| 2026-05-04 22:15 | -29.78847 | 20.55537 | 34976 ft | 437 kts | 13° |
| 2026-05-04 22:16 | -29.73293 | 20.58402 | 35000 ft | 438 kts | 13° |
| 2026-05-04 22:16 | -29.67714 | 20.61274 | 34994 ft | 439 kts | 13° |
| 2026-05-04 22:17 | -29.62117 | 20.64153 | 34991 ft | 439 kts | 13° |
| 2026-05-04 22:17 | -29.59246 | 20.65628 | 35245 ft | 438 kts | 12° |
| 2026-05-04 22:17 | -29.56412 | 20.67086 | 34888 ft | 435 kts | 12° |
| 2026-05-04 22:17 | -29.53640 | 20.68511 | 35109 ft | 437 kts | 12° |
| 2026-05-04 22:18 | -29.50841 | 20.69944 | 35049 ft | 436 kts | 12° |
| 2026-05-04 22:18 | -29.45422 | 20.72724 | 35025 ft | 436 kts | 12° |
| 2026-05-04 22:19 | -29.39874 | 20.75563 | 35016 ft | 437 kts | 13° |
| 2026-05-04 22:19 | -29.34270 | 20.78426 | 35011 ft | 436 kts | 12° |
| 2026-05-04 22:20 | -29.28741 | 20.81250 | 35011 ft | 437 kts | 12° |
| 2026-05-04 22:20 | -29.23183 | 20.84084 | 35011 ft | 436 kts | 12° |
| 2026-05-04 22:21 | -29.17594 | 20.86930 | 35007 ft | 437 kts | 12° |
| 2026-05-04 22:21 | -29.12048 | 20.89749 | 35010 ft | 437 kts | 12° |
| 2026-05-04 22:22 | -29.06464 | 20.92586 | 35010 ft | 439 kts | 13° |
| 2026-05-04 22:22 | -29.00857 | 20.95435 | 35003 ft | 436 kts | 13° |
| 2026-05-04 22:23 | -28.95309 | 20.98249 | 35002 ft | 436 kts | 13° |
| 2026-05-04 22:23 | -28.89753 | 21.01068 | 34997 ft | 436 kts | 13° |
| 2026-05-04 22:24 | -28.84218 | 21.03868 | 34990 ft | 436 kts | 13° |
| 2026-05-04 22:24 | -28.78647 | 21.06682 | 34989 ft | 435 kts | 13° |
| 2026-05-04 22:25 | -28.73078 | 21.09495 | 34990 ft | 437 kts | 12° |
| 2026-05-04 22:25 | -28.67532 | 21.12290 | 34994 ft | 437 kts | 12° |
| 2026-05-04 22:26 | -28.61962 | 21.15095 | 34998 ft | 437 kts | 12° |
| 2026-05-04 22:26 | -28.56344 | 21.17923 | 35008 ft | 437 kts | 12° |
| 2026-05-04 22:27 | -28.50791 | 21.20714 | 34999 ft | 437 kts | 12° |
| 2026-05-04 22:27 | -28.45256 | 21.23784 | 35000 ft | 445 kts | 17° |
| 2026-05-04 22:28 | -28.39925 | 21.27507 | 35000 ft | 454 kts | 22° |
| 2026-05-04 22:28 | -28.34840 | 21.31909 | 34998 ft | 464 kts | 28° |
| 2026-05-04 22:29 | -28.30016 | 21.36949 | 35004 ft | 469 kts | 31° |
| 2026-05-04 22:29 | -28.25291 | 21.42054 | 35009 ft | 469 kts | 31° |
| 2026-05-04 22:30 | -28.20587 | 21.47121 | 35004 ft | 469 kts | 31° |
| 2026-05-04 22:30 | -28.15821 | 21.52247 | 35008 ft | 470 kts | 31° |
| 2026-05-04 22:31 | -28.11055 | 21.57366 | 35003 ft | 468 kts | 31° |
| 2026-05-04 22:31 | -28.06331 | 21.62434 | 34996 ft | 467 kts | 31° |
| 2026-05-04 22:32 | -28.01580 | 21.67516 | 34995 ft | 468 kts | 31° |
| 2026-05-04 22:32 | -27.96847 | 21.72581 | 35006 ft | 467 kts | 31° |
| 2026-05-04 22:33 | -27.92131 | 21.77617 | 35011 ft | 466 kts | 31° |
| 2026-05-04 22:33 | -27.87400 | 21.82664 | 35013 ft | 466 kts | 31° |
| 2026-05-04 22:34 | -27.82682 | 21.87691 | 35012 ft | 466 kts | 31° |
| 2026-05-04 22:34 | -27.77959 | 21.92720 | 35007 ft | 467 kts | 30° |
| 2026-05-04 22:35 | -27.73276 | 21.97695 | 35007 ft | 468 kts | 31° |
| 2026-05-04 22:35 | -27.68692 | 22.02564 | 35006 ft | 467 kts | 30° |
| 2026-05-04 22:36 | -27.63969 | 22.07575 | 35005 ft | 466 kts | 30° |
| 2026-05-04 22:36 | -27.59221 | 22.12601 | 35002 ft | 468 kts | 30° |
| 2026-05-04 22:37 | -27.54443 | 22.17509 | 35008 ft | 461 kts | 27° |
| 2026-05-04 22:37 | -27.49195 | 22.21967 | 35010 ft | 452 kts | 21° |
| 2026-05-04 22:38 | -27.43834 | 22.25602 | 35011 ft | 440 kts | 15° |
| 2026-05-04 22:38 | -27.38333 | 22.28621 | 35011 ft | 437 kts | 13° |
| 2026-05-04 22:39 | -27.32849 | 22.31537 | 35017 ft | 437 kts | 13° |
| 2026-05-04 22:39 | -27.27323 | 22.34475 | 35013 ft | 438 kts | 13° |
| 2026-05-04 22:40 | -27.21784 | 22.37415 | 35014 ft | 438 kts | 13° |
| 2026-05-04 22:40 | -27.16258 | 22.40346 | 35012 ft | 438 kts | 13° |
| 2026-05-04 22:41 | -27.10744 | 22.43267 | 35003 ft | 438 kts | 13° |
| 2026-05-04 22:41 | -27.05180 | 22.46211 | 35000 ft | 440 kts | 13° |
| 2026-05-04 22:42 | -26.99636 | 22.49141 | 34992 ft | 438 kts | 13° |
| 2026-05-04 22:42 | -26.94099 | 22.52064 | 34985 ft | 440 kts | 13° |
| 2026-05-04 22:43 | -26.88538 | 22.54994 | 34985 ft | 440 kts | 13° |
| 2026-05-04 22:43 | -26.82996 | 22.57914 | 34985 ft | 441 kts | 13° |
| 2026-05-04 22:44 | -26.77438 | 22.60840 | 34986 ft | 441 kts | 12° |
| 2026-05-04 22:44 | -26.71806 | 22.63799 | 34988 ft | 440 kts | 13° |
| 2026-05-04 22:45 | -26.66249 | 22.66718 | 34988 ft | 441 kts | 12° |
| 2026-05-04 22:45 | -26.57867 | 22.71111 | 34993 ft | 441 kts | 12° |
| 2026-05-04 22:46 | -26.52299 | 22.74027 | 34994 ft | 441 kts | 12° |
| 2026-05-04 22:46 | -26.46728 | 22.76940 | 34996 ft | 442 kts | 12° |
| 2026-05-04 22:47 | -26.41142 | 22.79860 | 34996 ft | 442 kts | 12° |
| 2026-05-04 22:47 | -26.35544 | 22.82782 | 35003 ft | 443 kts | 12° |
| 2026-05-04 22:48 | -26.29943 | 22.85701 | 35004 ft | 444 kts | 12° |
| 2026-05-04 22:48 | -26.24319 | 22.88630 | 35003 ft | 443 kts | 12° |
| 2026-05-04 22:49 | -26.18695 | 22.91553 | 35012 ft | 445 kts | 12° |
| 2026-05-04 22:49 | -26.13089 | 22.94466 | 35006 ft | 444 kts | 12° |
| 2026-05-04 22:50 | -26.07455 | 22.97393 | 35010 ft | 445 kts | 12° |
| 2026-05-04 22:50 | -26.01844 | 23.00305 | 35012 ft | 444 kts | 12° |
| 2026-05-04 22:51 | -25.96188 | 23.03236 | 35011 ft | 445 kts | 12° |
| 2026-05-04 22:51 | -25.90590 | 23.06130 | 35015 ft | 446 kts | 12° |
| 2026-05-04 22:52 | -25.84918 | 23.09061 | 35019 ft | 447 kts | 12° |
| 2026-05-04 22:52 | -25.79382 | 23.11923 | 35021 ft | 449 kts | 12° |
| 2026-05-04 22:53 | -25.73721 | 23.14842 | 35023 ft | 448 kts | 12° |
| 2026-05-04 22:53 | -25.68062 | 23.17758 | 35023 ft | 449 kts | 12° |
| 2026-05-04 22:54 | -25.62338 | 23.20705 | 35025 ft | 450 kts | 12° |
| 2026-05-04 22:54 | -25.56670 | 23.23620 | 35025 ft | 449 kts | 13° |
| 2026-05-04 22:55 | -25.50964 | 23.26551 | 35021 ft | 450 kts | 13° |
| 2026-05-04 22:55 | -25.45272 | 23.29474 | 35025 ft | 449 kts | 13° |
| 2026-05-04 22:56 | -25.39573 | 23.32395 | 35024 ft | 452 kts | 13° |
| 2026-05-04 22:56 | -25.33866 | 23.35320 | 35025 ft | 451 kts | 13° |
| 2026-05-04 22:57 | -25.28269 | 23.38189 | 35033 ft | 452 kts | 14° |
| 2026-05-04 22:57 | -25.22631 | 23.41431 | 35032 ft | 459 kts | 16° |
| 2026-05-04 22:58 | -25.17005 | 23.44756 | 35035 ft | 459 kts | 16° |
| 2026-05-04 22:58 | -25.11349 | 23.48055 | 35032 ft | 454 kts | 14° |
| 2026-05-04 22:59 | -25.05718 | 23.50755 | 35027 ft | 444 kts | 9° |
| 2026-05-04 22:59 | -24.99889 | 23.53197 | 35032 ft | 446 kts | 9° |
| 2026-05-04 23:00 | -24.94036 | 23.55649 | 35052 ft | 448 kts | 9° |
| 2026-05-04 23:00 | -24.88238 | 23.58082 | 35046 ft | 446 kts | 9° |
| 2026-05-04 23:01 | -24.82388 | 23.60530 | 35054 ft | 448 kts | 10° |
| 2026-05-04 23:01 | -24.76607 | 23.63132 | 35054 ft | 450 kts | 12° |
| 2026-05-04 23:02 | -24.70793 | 23.65787 | 35049 ft | 451 kts | 11° |
| 2026-05-04 23:02 | -24.64977 | 23.68427 | 35055 ft | 450 kts | 11° |
| 2026-05-04 23:03 | -24.59172 | 23.71050 | 35056 ft | 449 kts | 11° |
| 2026-05-04 23:03 | -24.53371 | 23.73670 | 35061 ft | 451 kts | 11° |
| 2026-05-04 23:04 | -24.47561 | 23.76292 | 35064 ft | 449 kts | 11° |
| 2026-05-04 23:04 | -24.41765 | 23.78904 | 35069 ft | 452 kts | 11° |
| 2026-05-04 23:05 | -24.35929 | 23.81452 | 35071 ft | 449 kts | 11° |
| 2026-05-04 23:05 | -24.30111 | 23.83949 | 35072 ft | 449 kts | 11° |
| 2026-05-04 23:06 | -24.24235 | 23.86473 | 35073 ft | 451 kts | 11° |
| 2026-05-04 23:06 | -24.18373 | 23.88999 | 35079 ft | 451 kts | 11° |
| 2026-05-04 23:07 | -24.12532 | 23.91542 | 35081 ft | 451 kts | 11° |
| 2026-05-04 23:07 | -24.06694 | 23.94086 | 35082 ft | 451 kts | 11° |
| 2026-05-04 23:08 | -24.00802 | 23.96606 | 35085 ft | 451 kts | 11° |
| 2026-05-04 23:08 | -23.94760 | 23.99110 | 35088 ft | 450 kts | 11° |
| 2026-05-04 23:09 | -23.88697 | 24.01700 | 35088 ft | 452 kts | 12° |
| 2026-05-04 23:09 | -23.82595 | 24.04351 | 35088 ft | 452 kts | 12° |
| 2026-05-04 23:10 | -23.76535 | 24.06965 | 35086 ft | 451 kts | 12° |
| 2026-05-04 23:10 | -23.70406 | 24.09572 | 35082 ft | 452 kts | 12° |
| 2026-05-04 23:11 | -23.64350 | 24.12146 | 35081 ft | 451 kts | 12° |
| 2026-05-04 23:11 | -23.58228 | 24.14746 | 35082 ft | 452 kts | 12° |
| 2026-05-04 23:12 | -23.52098 | 24.17330 | 35085 ft | 452 kts | 12° |
| 2026-05-04 23:12 | -23.45998 | 24.19894 | 35082 ft | 453 kts | 12° |
| 2026-05-04 23:13 | -23.39888 | 24.22466 | 35077 ft | 453 kts | 12° |
| 2026-05-04 23:13 | -23.33774 | 24.25035 | 35071 ft | 452 kts | 12° |
| 2026-05-04 23:14 | -23.27636 | 24.27611 | 35066 ft | 453 kts | 12° |
| 2026-05-04 23:14 | -23.21485 | 24.30191 | 35066 ft | 452 kts | 12° |
| 2026-05-04 23:15 | -23.15318 | 24.32775 | 35071 ft | 454 kts | 13° |
| 2026-05-04 23:15 | -23.09288 | 24.35302 | 35077 ft | 454 kts | 13° |
| 2026-05-04 23:16 | -23.03145 | 24.37871 | 35078 ft | 453 kts | 13° |
| 2026-05-04 23:16 | -22.96998 | 24.40441 | 35081 ft | 454 kts | 13° |
| 2026-05-04 23:17 | -22.90860 | 24.43003 | 35081 ft | 455 kts | 13° |
| 2026-05-04 23:17 | -22.84717 | 24.45567 | 35084 ft | 455 kts | 13° |
| 2026-05-04 23:18 | -22.78564 | 24.48131 | 35083 ft | 455 kts | 13° |
| 2026-05-04 23:18 | -22.72368 | 24.50715 | 35087 ft | 456 kts | 13° |
| 2026-05-04 23:19 | -22.66316 | 24.53276 | 35086 ft | 458 kts | 14° |
| 2026-05-04 23:19 | -22.60200 | 24.55864 | 35089 ft | 457 kts | 13° |
| 2026-05-04 23:20 | -22.54102 | 24.58442 | 35086 ft | 457 kts | 14° |
| 2026-05-04 23:20 | -22.48090 | 24.60978 | 35089 ft | 458 kts | 14° |
| 2026-05-04 23:21 | -22.41914 | 24.63584 | 35087 ft | 458 kts | 14° |
| 2026-05-04 23:21 | -22.35827 | 24.66102 | 35081 ft | 457 kts | 13° |
| 2026-05-04 23:22 | -22.29616 | 24.68607 | 35089 ft | 457 kts | 13° |
| 2026-05-04 23:22 | -22.23388 | 24.71125 | 35094 ft | 458 kts | 13° |
| 2026-05-04 23:23 | -22.17171 | 24.73635 | 35098 ft | 459 kts | 13° |
| 2026-05-04 23:23 | -22.10897 | 24.76174 | 35098 ft | 459 kts | 13° |
| 2026-05-04 23:24 | -22.04682 | 24.78685 | 35102 ft | 459 kts | 13° |
| 2026-05-04 23:24 | -21.98433 | 24.81205 | 35104 ft | 459 kts | 13° |
| 2026-05-04 23:25 | -21.92171 | 24.83731 | 35106 ft | 458 kts | 13° |
| 2026-05-04 23:25 | -21.85952 | 24.86312 | 35107 ft | 459 kts | 14° |
| 2026-05-04 23:26 | -21.79728 | 24.88941 | 35107 ft | 459 kts | 14° |
| 2026-05-04 23:26 | -21.73537 | 24.91550 | 35108 ft | 459 kts | 14° |
| 2026-05-04 23:27 | -21.67331 | 24.94157 | 35106 ft | 461 kts | 14° |
| 2026-05-04 23:27 | -21.61078 | 24.96780 | 35108 ft | 462 kts | 15° |
| 2026-05-04 23:28 | -21.54826 | 24.99405 | 35103 ft | 461 kts | 15° |
| 2026-05-04 23:28 | -21.48604 | 25.02022 | 35101 ft | 460 kts | 15° |
| 2026-05-04 23:29 | -21.42370 | 25.04644 | 35101 ft | 461 kts | 15° |
| 2026-05-04 23:29 | -21.36167 | 25.07252 | 35101 ft | 460 kts | 15° |
| 2026-05-04 23:30 | -21.29971 | 25.09845 | 35100 ft | 459 kts | 15° |
| 2026-05-04 23:30 | -21.23745 | 25.12381 | 35099 ft | 460 kts | 15° |
| 2026-05-04 23:31 | -21.17493 | 25.14922 | 35099 ft | 461 kts | 15° |
| 2026-05-04 23:31 | -21.11191 | 25.17487 | 35100 ft | 462 kts | 15° |
| 2026-05-04 23:32 | -21.04919 | 25.20040 | 35097 ft | 462 kts | 15° |
| 2026-05-04 23:32 | -20.98675 | 25.22589 | 35093 ft | 462 kts | 15° |
| 2026-05-04 23:33 | -20.92446 | 25.25204 | 35091 ft | 461 kts | 15° |
| 2026-05-04 23:33 | -20.86225 | 25.27818 | 35092 ft | 462 kts | 16° |
| 2026-05-04 23:34 | -20.79951 | 25.30448 | 35089 ft | 462 kts | 16° |
| 2026-05-04 23:34 | -20.73729 | 25.33052 | 35092 ft | 461 kts | 16° |
| 2026-05-04 23:35 | -20.67519 | 25.35648 | 35097 ft | 462 kts | 16° |
| 2026-05-04 23:35 | -20.61272 | 25.38258 | 35098 ft | 462 kts | 16° |
| 2026-05-04 23:36 | -20.55130 | 25.41174 | 35105 ft | 466 kts | 22° |
| 2026-05-04 23:36 | -20.49167 | 25.44603 | 35110 ft | 467 kts | 23° |
| 2026-05-04 23:37 | -20.43204 | 25.48066 | 35110 ft | 467 kts | 23° |
| 2026-05-04 23:37 | -20.37275 | 25.51504 | 35111 ft | 466 kts | 23° |
| 2026-05-04 23:38 | -20.31334 | 25.54946 | 35112 ft | 467 kts | 24° |
| 2026-05-04 23:38 | -20.25361 | 25.58401 | 35114 ft | 467 kts | 24° |
| 2026-05-04 23:39 | -20.19416 | 25.61838 | 35110 ft | 467 kts | 24° |
| 2026-05-04 23:39 | -20.13437 | 25.65293 | 35108 ft | 467 kts | 23° |
| 2026-05-04 23:40 | -20.07469 | 25.68738 | 35110 ft | 467 kts | 23° |
| 2026-05-04 23:40 | -20.01660 | 25.72086 | 35109 ft | 467 kts | 24° |
| 2026-05-04 23:41 | -19.95847 | 25.75438 | 35110 ft | 467 kts | 24° |
| 2026-05-04 23:41 | -19.89853 | 25.78889 | 35110 ft | 467 kts | 24° |
| 2026-05-04 23:42 | -19.83849 | 25.82147 | 35111 ft | 465 kts | 20° |
| 2026-05-04 23:42 | -19.77759 | 25.85169 | 35111 ft | 465 kts | 20° |
| 2026-05-04 23:43 | -19.71747 | 25.88148 | 35113 ft | 465 kts | 21° |
| 2026-05-04 23:43 | -19.65662 | 25.91164 | 35114 ft | 465 kts | 20° |
| 2026-05-04 23:44 | -19.59541 | 25.94195 | 35114 ft | 465 kts | 21° |
| 2026-05-04 23:44 | -19.53424 | 25.97223 | 35114 ft | 465 kts | 21° |
| 2026-05-04 23:45 | -19.47485 | 26.00161 | 35112 ft | 466 kts | 21° |
| 2026-05-04 23:45 | -19.41367 | 26.03184 | 35107 ft | 466 kts | 21° |
| 2026-05-04 23:46 | -19.35264 | 26.06196 | 35106 ft | 467 kts | 21° |
| 2026-05-04 23:46 | -19.29124 | 26.09204 | 35107 ft | 467 kts | 20° |
| 2026-05-04 23:47 | -19.22906 | 26.12049 | 35113 ft | 466 kts | 19° |
| 2026-05-04 23:47 | -19.16692 | 26.14868 | 35121 ft | 466 kts | 19° |
| 2026-05-04 23:48 | -19.10477 | 26.17697 | 35127 ft | 466 kts | 20° |
| 2026-05-04 23:48 | -19.04305 | 26.20511 | 35129 ft | 466 kts | 20° |
| 2026-05-04 23:49 | -18.98126 | 26.23328 | 35134 ft | 466 kts | 20° |
| 2026-05-04 23:49 | -18.91885 | 26.26172 | 35133 ft | 467 kts | 20° |
| 2026-05-04 23:50 | -18.85651 | 26.29010 | 35132 ft | 467 kts | 20° |
| 2026-05-04 23:50 | -18.79561 | 26.31780 | 35134 ft | 467 kts | 20° |
| 2026-05-04 23:51 | -18.73353 | 26.34603 | 35135 ft | 468 kts | 20° |
| 2026-05-04 23:51 | -18.67097 | 26.37446 | 35131 ft | 467 kts | 20° |
| 2026-05-04 23:52 | -18.60869 | 26.40272 | 35126 ft | 468 kts | 20° |
| 2026-05-04 23:52 | -18.54619 | 26.43106 | 35121 ft | 468 kts | 20° |
| 2026-05-04 23:53 | -18.48374 | 26.45936 | 35114 ft | 469 kts | 20° |
| 2026-05-04 23:53 | -18.42122 | 26.48768 | 35105 ft | 469 kts | 20° |
| 2026-05-04 23:54 | -18.35885 | 26.51591 | 35093 ft | 468 kts | 20° |
| 2026-05-04 23:54 | -18.29672 | 26.54400 | 35086 ft | 469 kts | 20° |
| 2026-05-04 23:55 | -18.23399 | 26.57234 | 35076 ft | 469 kts | 20° |
| 2026-05-04 23:56 | -18.14029 | 26.61464 | 35064 ft | 470 kts | 20° |
| 2026-05-04 23:56 | -18.07746 | 26.64322 | 35060 ft | 470 kts | 22° |
| 2026-05-04 23:57 | -18.01713 | 26.67645 | 35054 ft | 472 kts | 27° |
| 2026-05-04 23:57 | -17.96050 | 26.71354 | 35058 ft | 473 kts | 29° |
| 2026-05-04 23:58 | -17.90256 | 26.75181 | 35075 ft | 473 kts | 29° |
| 2026-05-04 23:58 | -17.84430 | 26.79023 | 35098 ft | 472 kts | 29° |
| 2026-05-04 23:59 | -17.78638 | 26.82836 | 35113 ft | 472 kts | 29° |
| 2026-05-04 23:59 | -17.72810 | 26.86671 | 35113 ft | 472 kts | 29° |
| 2026-05-05 00:00 | -17.67012 | 26.90480 | 35105 ft | 472 kts | 29° |
| 2026-05-05 00:00 | -17.61223 | 26.94281 | 35109 ft | 472 kts | 29° |
| 2026-05-05 00:01 | -17.55414 | 26.98093 | 35102 ft | 473 kts | 29° |
| 2026-05-05 00:01 | -17.49589 | 27.01911 | 35103 ft | 472 kts | 29° |
| 2026-05-05 00:02 | -17.43785 | 27.05714 | 35107 ft | 471 kts | 29° |
| 2026-05-05 00:02 | -17.38000 | 27.09502 | 35130 ft | 472 kts | 29° |
| 2026-05-05 00:03 | -17.32170 | 27.13315 | 35142 ft | 473 kts | 29° |
| 2026-05-05 00:03 | -17.26366 | 27.17108 | 35151 ft | 473 kts | 29° |
| 2026-05-05 00:04 | -17.20547 | 27.20909 | 35158 ft | 473 kts | 29° |
| 2026-05-05 00:04 | -17.14723 | 27.24710 | 35164 ft | 473 kts | 29° |
| 2026-05-05 00:05 | -17.08885 | 27.28517 | 35165 ft | 473 kts | 29° |
| 2026-05-05 00:05 | -17.03100 | 27.32288 | 35168 ft | 473 kts | 29° |
| 2026-05-05 00:06 | -16.97247 | 27.36099 | 35162 ft | 473 kts | 29° |
| 2026-05-05 00:06 | -16.91548 | 27.39809 | 35145 ft | 472 kts | 29° |
| 2026-05-05 00:07 | -16.85759 | 27.43573 | 35136 ft | 471 kts | 29° |
| 2026-05-05 00:07 | -16.79942 | 27.47351 | 35135 ft | 472 kts | 29° |
| 2026-05-05 00:08 | -16.74136 | 27.51121 | 35131 ft | 472 kts | 29° |
| 2026-05-05 00:08 | -16.68340 | 27.54883 | 35132 ft | 471 kts | 29° |
| 2026-05-05 00:09 | -16.62506 | 27.58666 | 35128 ft | 471 kts | 29° |
| 2026-05-05 00:09 | -16.56725 | 27.62411 | 35129 ft | 472 kts | 29° |
| 2026-05-05 00:10 | -16.50871 | 27.66201 | 35138 ft | 472 kts | 29° |
| 2026-05-05 00:10 | -16.45068 | 27.69954 | 35140 ft | 472 kts | 29° |
| 2026-05-05 00:11 | -16.39268 | 27.73704 | 35143 ft | 472 kts | 29° |
| 2026-05-05 00:11 | -16.33436 | 27.77472 | 35144 ft | 471 kts | 29° |
| 2026-05-05 00:12 | -16.27632 | 27.81219 | 35153 ft | 472 kts | 29° |
| 2026-05-05 00:12 | -16.21827 | 27.84966 | 35166 ft | 472 kts | 29° |
| 2026-05-05 00:13 | -16.15984 | 27.88732 | 35175 ft | 472 kts | 29° |
| 2026-05-05 00:13 | -16.10180 | 27.92470 | 35183 ft | 473 kts | 29° |
| 2026-05-05 00:14 | -16.04455 | 27.96154 | 35188 ft | 473 kts | 29° |
| 2026-05-05 00:14 | -15.98748 | 27.99828 | 35192 ft | 472 kts | 29° |
| 2026-05-05 00:15 | -15.92912 | 28.03581 | 35188 ft | 472 kts | 29° |
| 2026-05-05 00:15 | -15.87105 | 28.07311 | 35179 ft | 472 kts | 29° |
| 2026-05-05 00:16 | -15.81305 | 28.11035 | 35172 ft | 472 kts | 30° |
| 2026-05-05 00:16 | -15.75489 | 28.14766 | 35170 ft | 472 kts | 30° |
| 2026-05-05 00:17 | -15.69655 | 28.18508 | 35171 ft | 472 kts | 29° |
| 2026-05-05 00:17 | -15.63808 | 28.22253 | 35177 ft | 472 kts | 30° |
| 2026-05-05 00:18 | -15.57993 | 28.25977 | 35187 ft | 472 kts | 30° |
| 2026-05-05 00:18 | -15.52158 | 28.29712 | 35190 ft | 472 kts | 30° |
| 2026-05-05 00:19 | -15.46346 | 28.33429 | 35191 ft | 472 kts | 30° |
| 2026-05-05 00:19 | -15.40500 | 28.37116 | 35188 ft | 472 kts | 27° |
| 2026-05-05 00:20 | -15.34305 | 28.40151 | 35181 ft | 469 kts | 19° |
| 2026-05-05 00:20 | -15.27812 | 28.42233 | 35170 ft | 467 kts | 11° |
| 2026-05-05 00:21 | -15.21165 | 28.43350 | 35158 ft | 465 kts | 4° |
| 2026-05-05 00:21 | -15.14466 | 28.44062 | 35153 ft | 464 kts | 4° |
| 2026-05-05 00:22 | -15.07753 | 28.44768 | 35151 ft | 465 kts | 4° |
| 2026-05-05 00:22 | -15.00985 | 28.45483 | 35150 ft | 465 kts | 4° |
| 2026-05-05 00:23 | -14.94300 | 28.46193 | 35149 ft | 465 kts | 4° |
| 2026-05-05 00:23 | -14.87532 | 28.46911 | 35152 ft | 464 kts | 4° |
| 2026-05-05 00:24 | -14.80827 | 28.47623 | 35152 ft | 465 kts | 4° |
| 2026-05-05 00:24 | -14.74108 | 28.48335 | 35153 ft | 465 kts | 4° |
| 2026-05-05 00:25 | -14.67367 | 28.49050 | 35155 ft | 465 kts | 4° |
| 2026-05-05 00:25 | -14.60669 | 28.49759 | 35157 ft | 465 kts | 4° |
| 2026-05-05 00:26 | -14.53936 | 28.50472 | 35160 ft | 465 kts | 4° |
| 2026-05-05 00:26 | -14.47221 | 28.51184 | 35161 ft | 465 kts | 4° |
| 2026-05-05 00:27 | -14.40506 | 28.51892 | 35164 ft | 465 kts | 4° |
| 2026-05-05 00:27 | -14.33843 | 28.52596 | 35166 ft | 465 kts | 4° |
| 2026-05-05 00:28 | -14.27121 | 28.53306 | 35166 ft | 466 kts | 4° |
| 2026-05-05 00:28 | -14.20356 | 28.54020 | 35167 ft | 465 kts | 4° |
| 2026-05-05 00:29 | -14.13662 | 28.54727 | 35171 ft | 465 kts | 4° |
| 2026-05-05 00:29 | -14.06939 | 28.55436 | 35174 ft | 465 kts | 4° |
| 2026-05-05 00:30 | -14.00186 | 28.56148 | 35179 ft | 465 kts | 4° |
| 2026-05-05 00:30 | -13.93488 | 28.56853 | 35186 ft | 465 kts | 4° |
| 2026-05-05 00:31 | -13.86744 | 28.57562 | 35192 ft | 465 kts | 4° |
| 2026-05-05 00:31 | -13.80043 | 28.58267 | 35194 ft | 465 kts | 4° |
| 2026-05-05 00:32 | -13.73346 | 28.58971 | 35196 ft | 465 kts | 4° |
| 2026-05-05 00:32 | -13.66579 | 28.59682 | 35197 ft | 465 kts | 4° |
| 2026-05-05 00:33 | -13.59901 | 28.60383 | 35195 ft | 465 kts | 4° |
| 2026-05-05 00:33 | -13.53162 | 28.61090 | 35194 ft | 465 kts | 4° |
| 2026-05-05 00:34 | -13.46404 | 28.61799 | 35197 ft | 464 kts | 4° |
| 2026-05-05 00:34 | -13.39710 | 28.62500 | 35196 ft | 464 kts | 4° |
| 2026-05-05 00:35 | -13.33004 | 28.63202 | 35199 ft | 464 kts | 4° |
| 2026-05-05 00:35 | -13.26268 | 28.63907 | 35202 ft | 464 kts | 4° |
| 2026-05-05 00:36 | -13.19563 | 28.64607 | 35202 ft | 464 kts | 4° |
| 2026-05-05 00:36 | -13.12868 | 28.65307 | 35201 ft | 463 kts | 4° |
| 2026-05-05 00:37 | -13.06160 | 28.66008 | 35210 ft | 463 kts | 4° |
| 2026-05-05 00:37 | -12.99473 | 28.66707 | 35211 ft | 464 kts | 4° |
| 2026-05-05 00:38 | -12.92770 | 28.67415 | 35212 ft | 464 kts | 4° |
| 2026-05-05 00:38 | -12.86072 | 28.68123 | 35214 ft | 464 kts | 4° |
| 2026-05-05 00:39 | -12.79380 | 28.68827 | 35212 ft | 464 kts | 4° |
| 2026-05-05 00:39 | -12.72630 | 28.69537 | 35210 ft | 463 kts | 4° |
| 2026-05-05 00:40 | -12.65990 | 28.70236 | 35207 ft | 463 kts | 4° |
| 2026-05-05 00:40 | -12.59270 | 28.70942 | 35203 ft | 464 kts | 4° |
| 2026-05-05 00:41 | -12.52556 | 28.71646 | 35196 ft | 464 kts | 4° |
| 2026-05-05 00:41 | -12.45885 | 28.72347 | 35181 ft | 464 kts | 4° |
| 2026-05-05 00:42 | -12.39150 | 28.73055 | 35176 ft | 464 kts | 4° |
| 2026-05-05 00:42 | -12.32468 | 28.73756 | 35172 ft | 464 kts | 4° |
| 2026-05-05 00:43 | -12.25769 | 28.74459 | 35165 ft | 464 kts | 4° |
| 2026-05-05 00:43 | -12.19008 | 28.75166 | 35159 ft | 464 kts | 4° |
| 2026-05-05 00:44 | -12.12339 | 28.75864 | 35158 ft | 463 kts | 4° |
| 2026-05-05 00:44 | -12.05642 | 28.76566 | 35158 ft | 463 kts | 4° |
| 2026-05-05 00:45 | -11.98954 | 28.77266 | 35155 ft | 464 kts | 4° |
| 2026-05-05 00:45 | -11.92201 | 28.77972 | 35158 ft | 464 kts | 4° |
| 2026-05-05 00:46 | -11.85477 | 28.78674 | 35166 ft | 464 kts | 4° |
| 2026-05-05 00:46 | -11.78756 | 28.79377 | 35174 ft | 463 kts | 4° |
| 2026-05-05 00:47 | -11.72088 | 28.80073 | 35181 ft | 462 kts | 4° |
| 2026-05-05 00:47 | -11.65356 | 28.80776 | 35185 ft | 462 kts | 4° |
| 2026-05-05 00:48 | -11.58693 | 28.81471 | 35187 ft | 462 kts | 4° |
| 2026-05-05 00:48 | -11.51963 | 28.82172 | 35192 ft | 463 kts | 4° |
| 2026-05-05 00:49 | -11.45318 | 28.82865 | 35191 ft | 462 kts | 4° |
| 2026-05-05 00:49 | -11.38602 | 28.83563 | 35186 ft | 462 kts | 5° |
| 2026-05-05 00:50 | -11.31911 | 28.84258 | 35181 ft | 462 kts | 5° |
| 2026-05-05 00:50 | -11.25220 | 28.84955 | 35178 ft | 462 kts | 5° |
| 2026-05-05 00:51 | -11.18529 | 28.85651 | 35175 ft | 462 kts | 5° |
| 2026-05-05 00:51 | -11.11908 | 28.86336 | 35181 ft | 461 kts | 4° |
| 2026-05-05 00:52 | -11.05298 | 28.86876 | 35191 ft | 461 kts | 3° |
| 2026-05-05 00:52 | -10.98852 | 28.87365 | 35194 ft | 461 kts | 3° |
| 2026-05-05 00:53 | -10.92211 | 28.87875 | 35192 ft | 461 kts | 3° |
| 2026-05-05 00:53 | -10.85521 | 28.88396 | 35187 ft | 461 kts | 3° |
| 2026-05-05 00:54 | -10.78812 | 28.88921 | 35187 ft | 461 kts | 4° |
| 2026-05-05 00:54 | -10.72151 | 28.89442 | 35179 ft | 461 kts | 4° |
| 2026-05-05 00:55 | -10.65462 | 28.89965 | 35180 ft | 461 kts | 3° |
| 2026-05-05 00:55 | -10.58761 | 28.90488 | 35175 ft | 461 kts | 3° |
| 2026-05-05 00:56 | -10.52087 | 28.91009 | 35169 ft | 461 kts | 4° |
| 2026-05-05 00:56 | -10.45407 | 28.91530 | 35169 ft | 462 kts | 4° |
| 2026-05-05 00:57 | -10.38698 | 28.92052 | 35170 ft | 462 kts | 4° |
| 2026-05-05 00:57 | -10.32048 | 28.92571 | 35174 ft | 463 kts | 4° |
| 2026-05-05 00:58 | -10.25328 | 28.93094 | 35178 ft | 463 kts | 4° |
| 2026-05-05 00:58 | -10.18649 | 28.93614 | 35182 ft | 462 kts | 4° |
| 2026-05-05 00:59 | -10.11967 | 28.94133 | 35186 ft | 461 kts | 4° |
| 2026-05-05 00:59 | -10.05262 | 28.94652 | 35188 ft | 462 kts | 3° |
| 2026-05-05 01:00 | -9.98558 | 28.95141 | 35192 ft | 462 kts | 3° |
| 2026-05-05 01:00 | -9.91886 | 28.95624 | 35189 ft | 463 kts | 3° |
| 2026-05-05 01:01 | -9.85195 | 28.96109 | 35189 ft | 463 kts | 4° |
| 2026-05-05 01:01 | -9.78502 | 28.96595 | 35187 ft | 462 kts | 4° |
| 2026-05-05 01:02 | -9.71788 | 28.97083 | 35186 ft | 463 kts | 4° |
| 2026-05-05 01:02 | -9.65197 | 28.97562 | 35177 ft | 463 kts | 4° |
| 2026-05-05 01:03 | -9.58510 | 28.98046 | 35168 ft | 463 kts | 4° |
| 2026-05-05 01:03 | -9.51821 | 28.98531 | 35161 ft | 463 kts | 4° |
| 2026-05-05 01:04 | -9.45192 | 28.99008 | 35148 ft | 464 kts | 4° |
| 2026-05-05 01:04 | -9.35093 | 28.99738 | 35136 ft | 464 kts | 4° |
| 2026-05-05 01:05 | -9.28407 | 29.00223 | 35131 ft | 464 kts | 4° |
| 2026-05-05 01:05 | -9.21665 | 29.00710 | 35120 ft | 464 kts | 4° |
| 2026-05-05 01:06 | -9.14954 | 29.01195 | 35113 ft | 464 kts | 3° |
| 2026-05-05 01:06 | -9.08229 | 29.01681 | 35104 ft | 464 kts | 4° |
| 2026-05-05 01:07 | -9.01508 | 29.02177 | 35100 ft | 465 kts | 4° |
| 2026-05-05 01:07 | -8.94956 | 29.02662 | 35097 ft | 465 kts | 4° |
| 2026-05-05 01:08 | -8.88166 | 29.03162 | 35097 ft | 465 kts | 4° |
| 2026-05-05 01:08 | -8.81455 | 29.03656 | 35098 ft | 465 kts | 4° |
| 2026-05-05 01:09 | -8.74742 | 29.04149 | 35099 ft | 465 kts | 4° |
| 2026-05-05 01:09 | -8.67971 | 29.04645 | 35098 ft | 465 kts | 4° |
| 2026-05-05 01:10 | -8.61252 | 29.05137 | 35101 ft | 464 kts | 4° |
| 2026-05-05 01:10 | -8.54510 | 29.05632 | 35103 ft | 464 kts | 4° |
| 2026-05-05 01:11 | -8.47792 | 29.06124 | 35107 ft | 464 kts | 4° |
| 2026-05-05 01:11 | -8.41091 | 29.06616 | 35114 ft | 464 kts | 4° |
| 2026-05-05 01:12 | -8.34312 | 29.07112 | 35124 ft | 465 kts | 4° |
| 2026-05-05 01:12 | -8.27620 | 29.07602 | 35133 ft | 464 kts | 4° |
| 2026-05-05 01:13 | -8.20888 | 29.08095 | 35136 ft | 464 kts | 4° |
| 2026-05-05 01:13 | -8.14179 | 29.08585 | 35130 ft | 464 kts | 4° |
| 2026-05-05 01:14 | -8.07427 | 29.09079 | 35128 ft | 463 kts | 4° |
| 2026-05-05 01:14 | -8.00711 | 29.09570 | 35123 ft | 464 kts | 4° |
| 2026-05-05 01:15 | -7.93991 | 29.10061 | 35118 ft | 465 kts | 4° |
| 2026-05-05 01:15 | -7.87192 | 29.10557 | 35132 ft | 464 kts | 4° |
| 2026-05-05 01:16 | -7.80496 | 29.11044 | 35151 ft | 463 kts | 5° |
| 2026-05-05 01:16 | -7.73775 | 29.11534 | 35162 ft | 463 kts | 5° |
| 2026-05-05 01:17 | -7.67115 | 29.12017 | 35175 ft | 463 kts | 4° |
| 2026-05-05 01:17 | -7.60365 | 29.12504 | 35181 ft | 464 kts | 4° |
| 2026-05-05 01:18 | -7.53656 | 29.12987 | 35191 ft | 464 kts | 4° |
| 2026-05-05 01:18 | -7.46939 | 29.13469 | 35204 ft | 463 kts | 5° |
| 2026-05-05 01:19 | -7.40228 | 29.13952 | 35212 ft | 462 kts | 5° |
| 2026-05-05 01:19 | -7.33509 | 29.14435 | 35212 ft | 462 kts | 5° |
| 2026-05-05 01:20 | -7.26812 | 29.14917 | 35214 ft | 462 kts | 5° |
| 2026-05-05 01:20 | -7.20066 | 29.15403 | 35224 ft | 462 kts | 5° |
| 2026-05-05 01:21 | -7.13380 | 29.15882 | 35223 ft | 462 kts | 5° |
| 2026-05-05 01:21 | -7.06659 | 29.16363 | 35236 ft | 462 kts | 5° |
| 2026-05-05 01:22 | -7.00003 | 29.16841 | 35246 ft | 462 kts | 5° |
| 2026-05-05 01:22 | -6.93283 | 29.17323 | 35237 ft | 462 kts | 5° |
| 2026-05-05 01:23 | -6.86612 | 29.17803 | 35219 ft | 462 kts | 5° |
| 2026-05-05 01:23 | -6.79912 | 29.18283 | 35204 ft | 463 kts | 5° |
| 2026-05-05 01:24 | -6.73230 | 29.18759 | 35184 ft | 462 kts | 5° |
| 2026-05-05 01:24 | -6.66499 | 29.19241 | 35169 ft | 463 kts | 5° |
| 2026-05-05 01:25 | -6.59788 | 29.19725 | 35160 ft | 464 kts | 5° |
| 2026-05-05 01:25 | -6.53054 | 29.20214 | 35144 ft | 464 kts | 5° |
| 2026-05-05 01:26 | -6.46352 | 29.20700 | 35130 ft | 464 kts | 5° |
| 2026-05-05 01:26 | -6.39644 | 29.21184 | 35124 ft | 463 kts | 5° |
| 2026-05-05 01:27 | -6.32962 | 29.21667 | 35118 ft | 464 kts | 5° |
| 2026-05-05 01:27 | -6.26211 | 29.22154 | 35111 ft | 464 kts | 5° |
| 2026-05-05 01:28 | -6.19442 | 29.22643 | 35097 ft | 465 kts | 5° |
| 2026-05-05 01:28 | -6.12704 | 29.23129 | 35089 ft | 466 kts | 5° |
| 2026-05-05 01:29 | -6.05969 | 29.23614 | 35089 ft | 465 kts | 5° |
| 2026-05-05 01:29 | -5.99257 | 29.24095 | 35087 ft | 464 kts | 5° |
| 2026-05-05 01:30 | -5.92485 | 29.24583 | 35093 ft | 465 kts | 5° |
| 2026-05-05 01:30 | -5.85788 | 29.25330 | 35093 ft | 465 kts | 10° |
| 2026-05-05 01:31 | -5.79190 | 29.26718 | 35099 ft | 465 kts | 14° |
| 2026-05-05 01:31 | -5.72609 | 29.28247 | 35104 ft | 465 kts | 14° |
| 2026-05-05 01:32 | -5.66068 | 29.29765 | 35116 ft | 464 kts | 14° |
| 2026-05-05 01:32 | -5.59532 | 29.31278 | 35131 ft | 464 kts | 14° |
| 2026-05-05 01:33 | -5.53030 | 29.32783 | 35156 ft | 464 kts | 14° |
| 2026-05-05 01:33 | -5.46482 | 29.34298 | 35163 ft | 465 kts | 14° |
| 2026-05-05 01:34 | -5.39961 | 29.35805 | 35145 ft | 465 kts | 14° |
| 2026-05-05 01:34 | -5.33380 | 29.37326 | 35130 ft | 464 kts | 14° |
| 2026-05-05 01:35 | -5.26950 | 29.38811 | 35124 ft | 464 kts | 14° |
| 2026-05-05 01:35 | -5.20418 | 29.40320 | 35117 ft | 464 kts | 14° |
| 2026-05-05 01:36 | -5.13904 | 29.41825 | 35121 ft | 464 kts | 14° |
| 2026-05-05 01:36 | -5.07359 | 29.43339 | 35125 ft | 464 kts | 14° |
| 2026-05-05 01:37 | -5.00821 | 29.44853 | 35129 ft | 465 kts | 14° |
| 2026-05-05 01:37 | -4.94271 | 29.46369 | 35119 ft | 465 kts | 14° |
| 2026-05-05 01:38 | -4.87680 | 29.47894 | 35126 ft | 465 kts | 14° |
| 2026-05-05 01:38 | -4.81111 | 29.49415 | 35126 ft | 465 kts | 14° |
| 2026-05-05 01:39 | -4.74577 | 29.50926 | 35128 ft | 464 kts | 14° |
| 2026-05-05 01:39 | -4.68019 | 29.52442 | 35133 ft | 465 kts | 14° |
| 2026-05-05 01:40 | -4.61477 | 29.53954 | 35140 ft | 465 kts | 14° |
| 2026-05-05 01:40 | -4.54895 | 29.55474 | 35144 ft | 465 kts | 14° |
| 2026-05-05 01:41 | -4.48289 | 29.57001 | 35150 ft | 465 kts | 14° |
| 2026-05-05 01:41 | -4.41706 | 29.58526 | 35155 ft | 464 kts | 14° |
| 2026-05-05 01:42 | -4.35092 | 29.60061 | 35158 ft | 465 kts | 14° |
| 2026-05-05 01:42 | -4.28497 | 29.61590 | 35161 ft | 465 kts | 14° |
| 2026-05-05 01:43 | -4.21887 | 29.63121 | 35166 ft | 466 kts | 14° |
| 2026-05-05 01:43 | -4.15282 | 29.64651 | 35186 ft | 465 kts | 14° |
| 2026-05-05 01:44 | -4.08797 | 29.66152 | 35215 ft | 465 kts | 14° |
| 2026-05-05 01:44 | -4.02182 | 29.67684 | 35248 ft | 465 kts | 14° |
| 2026-05-05 01:45 | -3.95623 | 29.69202 | 35275 ft | 466 kts | 14° |
| 2026-05-05 01:45 | -3.88981 | 29.70740 | 35289 ft | 466 kts | 14° |
| 2026-05-05 01:46 | -3.82400 | 29.72263 | 35292 ft | 466 kts | 14° |
| 2026-05-05 01:46 | -3.75826 | 29.73783 | 35287 ft | 466 kts | 14° |
| 2026-05-05 01:47 | -3.69204 | 29.75315 | 35283 ft | 466 kts | 14° |
| 2026-05-05 01:47 | -3.62620 | 29.76837 | 35282 ft | 466 kts | 14° |
| 2026-05-05 01:48 | -3.56061 | 29.78354 | 35287 ft | 466 kts | 14° |
| 2026-05-05 01:48 | -3.49472 | 29.79877 | 35293 ft | 466 kts | 14° |
| 2026-05-05 01:49 | -3.42874 | 29.81405 | 35292 ft | 466 kts | 14° |
| 2026-05-05 01:49 | -3.36320 | 29.82923 | 35295 ft | 466 kts | 14° |
| 2026-05-05 01:50 | -3.29722 | 29.84450 | 35293 ft | 465 kts | 14° |
| 2026-05-05 01:50 | -3.23100 | 29.85982 | 35296 ft | 465 kts | 14° |
| 2026-05-05 01:51 | -3.16523 | 29.87506 | 35292 ft | 466 kts | 14° |
| 2026-05-05 01:51 | -3.09960 | 29.89028 | 35290 ft | 466 kts | 14° |
| 2026-05-05 01:52 | -3.03357 | 29.90557 | 35287 ft | 465 kts | 14° |
| 2026-05-05 01:52 | -2.96769 | 29.92083 | 35279 ft | 465 kts | 14° |
| 2026-05-05 01:53 | -2.90253 | 29.93593 | 35266 ft | 465 kts | 14° |
| 2026-05-05 01:53 | -2.83630 | 29.95126 | 35260 ft | 465 kts | 14° |
| 2026-05-05 01:54 | -2.77035 | 29.96652 | 35257 ft | 465 kts | 14° |
| 2026-05-05 01:54 | -2.70488 | 29.98167 | 35254 ft | 465 kts | 14° |
| 2026-05-05 01:55 | -2.63912 | 29.99689 | 35248 ft | 465 kts | 14° |
| 2026-05-05 01:55 | -2.57354 | 30.01206 | 35241 ft | 465 kts | 14° |
| 2026-05-05 01:56 | -2.50778 | 30.02727 | 35235 ft | 465 kts | 14° |
| 2026-05-05 01:56 | -2.44204 | 30.04248 | 35233 ft | 465 kts | 14° |
| 2026-05-05 01:57 | -2.37629 | 30.05768 | 35233 ft | 464 kts | 14° |
| 2026-05-05 01:57 | -2.31068 | 30.07225 | 35233 ft | 465 kts | 14° |
| 2026-05-05 01:58 | -2.24491 | 30.08668 | 35228 ft | 464 kts | 14° |
| 2026-05-05 01:58 | -2.17878 | 30.10122 | 35222 ft | 464 kts | 14° |
| 2026-05-05 01:59 | -2.11311 | 30.11569 | 35212 ft | 465 kts | 14° |
| 2026-05-05 01:59 | -2.04746 | 30.13016 | 35208 ft | 465 kts | 14° |
| 2026-05-05 02:00 | -1.98281 | 30.14439 | 35204 ft | 464 kts | 14° |
| 2026-05-05 02:00 | -1.91726 | 30.16102 | 35206 ft | 463 kts | 17° |
| 2026-05-05 02:01 | -1.85207 | 30.17832 | 35217 ft | 463 kts | 17° |
| 2026-05-05 02:01 | -1.78767 | 30.19539 | 35233 ft | 464 kts | 17° |
| 2026-05-05 02:02 | -1.72214 | 30.21275 | 35239 ft | 465 kts | 17° |
| 2026-05-05 02:02 | -1.65726 | 30.22994 | 35247 ft | 464 kts | 17° |
| 2026-05-05 02:03 | -1.59211 | 30.24722 | 35247 ft | 464 kts | 17° |
| 2026-05-05 02:03 | -1.52721 | 30.26442 | 35241 ft | 465 kts | 17° |
| 2026-05-05 02:04 | -1.46195 | 30.28171 | 35234 ft | 465 kts | 17° |
| 2026-05-05 02:04 | -1.39699 | 30.29892 | 35237 ft | 465 kts | 17° |
| 2026-05-05 02:05 | -1.33135 | 30.31631 | 35241 ft | 465 kts | 17° |
| 2026-05-05 02:05 | -1.26676 | 30.33341 | 35249 ft | 465 kts | 17° |
| 2026-05-05 02:06 | -1.20186 | 30.35060 | 35249 ft | 465 kts | 17° |
| 2026-05-05 02:06 | -1.13669 | 30.36787 | 35241 ft | 465 kts | 17° |
| 2026-05-05 02:07 | -1.07102 | 30.38419 | 35227 ft | 466 kts | 13° |
| 2026-05-05 02:07 | -1.00425 | 30.39601 | 35224 ft | 467 kts | 12° |
| 2026-05-05 02:08 | -0.93762 | 30.40724 | 35221 ft | 467 kts | 12° |
| 2026-05-05 02:08 | -0.87098 | 30.41851 | 35232 ft | 467 kts | 12° |
| 2026-05-05 02:09 | -0.80411 | 30.42986 | 35241 ft | 467 kts | 12° |
| 2026-05-05 02:09 | -0.73747 | 30.44116 | 35253 ft | 467 kts | 11° |
| 2026-05-05 02:10 | -0.67101 | 30.45244 | 35252 ft | 467 kts | 11° |
| 2026-05-05 02:10 | -0.60443 | 30.46371 | 35240 ft | 467 kts | 11° |
| 2026-05-05 02:11 | -0.53762 | 30.47502 | 35230 ft | 467 kts | 12° |
| 2026-05-05 02:11 | -0.47086 | 30.48631 | 35220 ft | 466 kts | 12° |
| 2026-05-05 02:12 | -0.37043 | 30.50332 | 35238 ft | 467 kts | 12° |
| 2026-05-05 02:13 | -0.30514 | 30.51436 | 35259 ft | 466 kts | 12° |
| 2026-05-05 02:13 | -0.23853 | 30.52563 | 35278 ft | 467 kts | 12° |
| 2026-05-05 02:14 | -0.17204 | 30.53687 | 35255 ft | 467 kts | 12° |
| 2026-05-05 02:14 | -0.10524 | 30.54817 | 35221 ft | 467 kts | 12° |
| 2026-05-05 02:15 | -0.03842 | 30.55948 | 35190 ft | 467 kts | 12° |
| 2026-05-05 02:15 | 0.02828 | 30.57076 | 35163 ft | 467 kts | 11° |
| 2026-05-05 02:16 | 0.09496 | 30.58203 | 35159 ft | 467 kts | 12° |
| 2026-05-05 02:16 | 0.16181 | 30.59332 | 35163 ft | 467 kts | 12° |
| 2026-05-05 02:17 | 0.22833 | 30.60465 | 35163 ft | 467 kts | 12° |
| 2026-05-05 02:17 | 0.29516 | 30.61608 | 35162 ft | 467 kts | 12° |
| 2026-05-05 02:18 | 0.36178 | 30.62744 | 35161 ft | 467 kts | 12° |
| 2026-05-05 02:18 | 0.42789 | 30.63872 | 35158 ft | 468 kts | 12° |
| 2026-05-05 02:19 | 0.49467 | 30.65009 | 35157 ft | 467 kts | 12° |
| 2026-05-05 02:19 | 0.56180 | 30.66153 | 35155 ft | 468 kts | 12° |
| 2026-05-05 02:20 | 0.62858 | 30.67290 | 35149 ft | 468 kts | 12° |
| 2026-05-05 02:20 | 0.69563 | 30.68433 | 35142 ft | 468 kts | 12° |
| 2026-05-05 02:21 | 0.76260 | 30.69573 | 35136 ft | 469 kts | 12° |
| 2026-05-05 02:21 | 0.82991 | 30.70716 | 35125 ft | 469 kts | 12° |
| 2026-05-05 02:22 | 0.89635 | 30.71844 | 35118 ft | 469 kts | 12° |
| 2026-05-05 02:22 | 0.96302 | 30.72976 | 35113 ft | 469 kts | 12° |
| 2026-05-05 02:23 | 1.02944 | 30.74105 | 35108 ft | 469 kts | 11° |
| 2026-05-05 02:23 | 1.09646 | 30.75242 | 35102 ft | 470 kts | 11° |
| 2026-05-05 02:24 | 1.16362 | 30.76381 | 35090 ft | 470 kts | 11° |
| 2026-05-05 02:24 | 1.23076 | 30.77520 | 35083 ft | 470 kts | 11° |
| 2026-05-05 02:25 | 1.29622 | 30.78630 | 35082 ft | 469 kts | 12° |
| 2026-05-05 02:25 | 1.36289 | 30.79763 | 35076 ft | 469 kts | 11° |
| 2026-05-05 02:26 | 1.42954 | 30.80893 | 35070 ft | 470 kts | 11° |
| 2026-05-05 02:26 | 1.49650 | 30.82029 | 35064 ft | 470 kts | 11° |
| 2026-05-05 02:27 | 1.56358 | 30.83167 | 35062 ft | 470 kts | 11° |
| 2026-05-05 02:27 | 1.63059 | 30.84306 | 35061 ft | 470 kts | 11° |
| 2026-05-05 02:28 | 1.69778 | 30.85447 | 35064 ft | 470 kts | 11° |
| 2026-05-05 02:28 | 1.76526 | 30.86594 | 35061 ft | 470 kts | 11° |
| 2026-05-05 02:29 | 1.83225 | 30.87742 | 35076 ft | 471 kts | 11° |
| 2026-05-05 02:29 | 1.90009 | 30.88903 | 35088 ft | 471 kts | 11° |
| 2026-05-05 02:30 | 1.96731 | 30.90053 | 35115 ft | 470 kts | 11° |
| 2026-05-05 02:30 | 2.03461 | 30.91202 | 35132 ft | 470 kts | 11° |
| 2026-05-05 02:31 | 2.10107 | 30.92337 | 35148 ft | 471 kts | 11° |
| 2026-05-05 02:31 | 2.16881 | 30.93493 | 35168 ft | 471 kts | 11° |
| 2026-05-05 02:32 | 2.23621 | 30.94646 | 35190 ft | 472 kts | 11° |
| 2026-05-05 02:32 | 2.30375 | 30.95800 | 35205 ft | 473 kts | 11° |
| 2026-05-05 02:33 | 2.37186 | 30.96966 | 35188 ft | 473 kts | 11° |
| 2026-05-05 02:33 | 2.43988 | 30.98129 | 35164 ft | 474 kts | 11° |
| 2026-05-05 02:34 | 2.50774 | 30.99289 | 35141 ft | 474 kts | 11° |
| 2026-05-05 02:34 | 2.57552 | 31.00447 | 35116 ft | 474 kts | 11° |
| 2026-05-05 02:35 | 2.64355 | 31.01611 | 35089 ft | 475 kts | 11° |
| 2026-05-05 02:35 | 2.71205 | 31.02784 | 35069 ft | 476 kts | 11° |
| 2026-05-05 02:36 | 2.77995 | 31.03946 | 35054 ft | 477 kts | 11° |
| 2026-05-05 02:36 | 2.84870 | 31.05121 | 35048 ft | 476 kts | 11° |
| 2026-05-05 02:37 | 2.91695 | 31.06288 | 35049 ft | 476 kts | 11° |
| 2026-05-05 02:37 | 2.98377 | 31.07431 | 35038 ft | 477 kts | 11° |
| 2026-05-05 02:38 | 3.05222 | 31.08603 | 35033 ft | 478 kts | 11° |
| 2026-05-05 02:38 | 3.12086 | 31.09778 | 35031 ft | 478 kts | 11° |
| 2026-05-05 02:39 | 3.18915 | 31.10947 | 35040 ft | 478 kts | 11° |
| 2026-05-05 02:39 | 3.25748 | 31.12116 | 35047 ft | 478 kts | 11° |
| 2026-05-05 02:40 | 3.32597 | 31.13289 | 35048 ft | 479 kts | 11° |
| 2026-05-05 02:40 | 3.39518 | 31.14473 | 35048 ft | 479 kts | 11° |
| 2026-05-05 02:41 | 3.46365 | 31.15647 | 35055 ft | 479 kts | 11° |
| 2026-05-05 02:41 | 3.53237 | 31.16824 | 35055 ft | 479 kts | 11° |
| 2026-05-05 02:42 | 3.60113 | 31.18001 | 35055 ft | 479 kts | 11° |
| 2026-05-05 02:42 | 3.66958 | 31.19173 | 35049 ft | 480 kts | 11° |
| 2026-05-05 02:43 | 3.73664 | 31.20322 | 35046 ft | 480 kts | 11° |
| 2026-05-05 02:43 | 3.80463 | 31.21486 | 35040 ft | 480 kts | 11° |
| 2026-05-05 02:44 | 3.87372 | 31.22670 | 35028 ft | 480 kts | 11° |
| 2026-05-05 02:44 | 3.94275 | 31.23858 | 35019 ft | 481 kts | 11° |
| 2026-05-05 02:45 | 4.01005 | 31.25480 | 35008 ft | 480 kts | 18° |
| 2026-05-05 02:45 | 4.07580 | 31.27838 | 35002 ft | 479 kts | 22° |
| 2026-05-05 02:46 | 4.14058 | 31.30442 | 34997 ft | 480 kts | 23° |
| 2026-05-05 02:46 | 4.20291 | 31.32951 | 34992 ft | 480 kts | 23° |
| 2026-05-05 02:47 | 4.26748 | 31.35545 | 34984 ft | 480 kts | 23° |
| 2026-05-05 02:47 | 4.33203 | 31.38134 | 34979 ft | 480 kts | 23° |
| 2026-05-05 02:48 | 4.39661 | 31.40724 | 34979 ft | 480 kts | 23° |
| 2026-05-05 02:48 | 4.46175 | 31.43337 | 34973 ft | 480 kts | 23° |
| 2026-05-05 02:49 | 4.52634 | 31.45926 | 34960 ft | 480 kts | 23° |
| 2026-05-05 02:49 | 4.59132 | 31.48534 | 34954 ft | 481 kts | 23° |
| 2026-05-05 02:50 | 4.65561 | 31.51114 | 34949 ft | 481 kts | 23° |
| 2026-05-05 02:50 | 4.72086 | 31.53733 | 34947 ft | 481 kts | 23° |
| 2026-05-05 02:51 | 4.78528 | 31.56319 | 34946 ft | 481 kts | 23° |
| 2026-05-05 02:51 | 4.85033 | 31.58931 | 34934 ft | 481 kts | 23° |
| 2026-05-05 02:52 | 4.91627 | 31.61290 | 34920 ft | 481 kts | 19° |
| 2026-05-05 02:52 | 4.98266 | 31.63447 | 34908 ft | 482 kts | 19° |
| 2026-05-05 02:53 | 5.04953 | 31.65614 | 34909 ft | 482 kts | 19° |
| 2026-05-05 02:53 | 5.11625 | 31.67785 | 34912 ft | 482 kts | 19° |
| 2026-05-05 02:54 | 5.18267 | 31.69946 | 34918 ft | 482 kts | 19° |
| 2026-05-05 02:54 | 5.24908 | 31.72107 | 34917 ft | 482 kts | 19° |
| 2026-05-05 02:55 | 5.31583 | 31.74280 | 34912 ft | 482 kts | 19° |
| 2026-05-05 02:55 | 5.38234 | 31.76446 | 34909 ft | 481 kts | 19° |
| 2026-05-05 02:56 | 5.44885 | 31.78611 | 34909 ft | 481 kts | 19° |
| 2026-05-05 02:56 | 5.51576 | 31.80793 | 34904 ft | 481 kts | 19° |
| 2026-05-05 02:57 | 5.58022 | 31.82895 | 34899 ft | 481 kts | 19° |
| 2026-05-05 02:57 | 5.64667 | 31.85059 | 34897 ft | 482 kts | 19° |
| 2026-05-05 02:58 | 5.71089 | 31.87153 | 34896 ft | 481 kts | 19° |
| 2026-05-05 02:58 | 5.77743 | 31.89323 | 34895 ft | 481 kts | 19° |
| 2026-05-05 02:59 | 5.84383 | 31.91489 | 34895 ft | 480 kts | 19° |
| 2026-05-05 02:59 | 5.91029 | 31.93659 | 34892 ft | 480 kts | 19° |
| 2026-05-05 03:00 | 5.97639 | 31.95815 | 34890 ft | 481 kts | 19° |
| 2026-05-05 03:00 | 6.04323 | 31.97997 | 34890 ft | 481 kts | 19° |
| 2026-05-05 03:01 | 6.10924 | 32.00153 | 34891 ft | 481 kts | 19° |
| 2026-05-05 03:01 | 6.17550 | 32.02317 | 34899 ft | 480 kts | 19° |
| 2026-05-05 03:02 | 6.24185 | 32.04485 | 34905 ft | 479 kts | 19° |
| 2026-05-05 03:02 | 6.30797 | 32.06646 | 34905 ft | 480 kts | 19° |
| 2026-05-05 03:03 | 6.37436 | 32.08816 | 34904 ft | 481 kts | 19° |
| 2026-05-05 03:03 | 6.44136 | 32.11007 | 34903 ft | 481 kts | 19° |
| 2026-05-05 03:04 | 6.50747 | 32.13169 | 34901 ft | 481 kts | 19° |
| 2026-05-05 03:04 | 6.57397 | 32.15344 | 34899 ft | 481 kts | 19° |
| 2026-05-05 03:05 | 6.63935 | 32.17484 | 34900 ft | 481 kts | 19° |
| 2026-05-05 03:05 | 6.70590 | 32.19662 | 34898 ft | 481 kts | 19° |
| 2026-05-05 03:06 | 6.77240 | 32.21839 | 34895 ft | 481 kts | 19° |
| 2026-05-05 03:06 | 6.83678 | 32.23948 | 34893 ft | 481 kts | 19° |
| 2026-05-05 03:07 | 6.90379 | 32.26144 | 34892 ft | 481 kts | 19° |
| 2026-05-05 03:07 | 6.97020 | 32.28319 | 34890 ft | 480 kts | 19° |
| 2026-05-05 03:08 | 7.03685 | 32.30504 | 34889 ft | 480 kts | 19° |
| 2026-05-05 03:08 | 7.10334 | 32.32684 | 34885 ft | 480 kts | 19° |
| 2026-05-05 03:09 | 7.16974 | 32.34862 | 34880 ft | 480 kts | 19° |
| 2026-05-05 03:09 | 7.23611 | 32.37040 | 34875 ft | 479 kts | 19° |
| 2026-05-05 03:10 | 7.30220 | 32.39209 | 34871 ft | 480 kts | 19° |
| 2026-05-05 03:10 | 7.36773 | 32.41361 | 34867 ft | 481 kts | 19° |
| 2026-05-05 03:11 | 7.43441 | 32.43550 | 34860 ft | 482 kts | 19° |
| 2026-05-05 03:11 | 7.50077 | 32.45730 | 34851 ft | 482 kts | 19° |
| 2026-05-05 03:12 | 7.56749 | 32.47921 | 34851 ft | 481 kts | 19° |
| 2026-05-05 03:12 | 7.63365 | 32.50095 | 34850 ft | 481 kts | 19° |
| 2026-05-05 03:13 | 7.69962 | 32.52426 | 34850 ft | 481 kts | 23° |
| 2026-05-05 03:13 | 7.76418 | 32.55235 | 34849 ft | 482 kts | 24° |
| 2026-05-05 03:14 | 7.82816 | 32.58074 | 34845 ft | 482 kts | 24° |
| 2026-05-05 03:14 | 7.89269 | 32.60932 | 34845 ft | 482 kts | 24° |
| 2026-05-05 03:15 | 7.95630 | 32.63746 | 34841 ft | 482 kts | 24° |
| 2026-05-05 03:15 | 8.02060 | 32.66592 | 34843 ft | 482 kts | 24° |
| 2026-05-05 03:16 | 8.08472 | 32.69429 | 34844 ft | 483 kts | 24° |
| 2026-05-05 03:16 | 8.14834 | 32.72245 | 34842 ft | 483 kts | 24° |
| 2026-05-05 03:17 | 8.21217 | 32.75071 | 34846 ft | 484 kts | 24° |
| 2026-05-05 03:17 | 8.27654 | 32.77922 | 34849 ft | 484 kts | 24° |
| 2026-05-05 03:18 | 8.34075 | 32.80767 | 34859 ft | 483 kts | 24° |
| 2026-05-05 03:18 | 8.40485 | 32.83609 | 34857 ft | 484 kts | 24° |
| 2026-05-05 03:19 | 8.50075 | 32.87864 | 34859 ft | 483 kts | 24° |
| 2026-05-05 03:19 | 8.56529 | 32.90725 | 34851 ft | 484 kts | 24° |
| 2026-05-05 03:20 | 8.62946 | 32.93573 | 34846 ft | 484 kts | 24° |
| 2026-05-05 03:20 | 8.69366 | 32.96423 | 34844 ft | 484 kts | 24° |
| 2026-05-05 03:21 | 8.75821 | 32.99289 | 34845 ft | 484 kts | 24° |
| 2026-05-05 03:21 | 8.82224 | 33.02136 | 34846 ft | 484 kts | 24° |
| 2026-05-05 03:22 | 8.88630 | 33.04983 | 34854 ft | 484 kts | 24° |
| 2026-05-05 03:22 | 8.95055 | 33.07840 | 34859 ft | 484 kts | 24° |
| 2026-05-05 03:23 | 9.01515 | 33.10713 | 34864 ft | 484 kts | 24° |
| 2026-05-05 03:23 | 9.07962 | 33.13582 | 34866 ft | 483 kts | 24° |
| 2026-05-05 03:24 | 9.14380 | 33.16439 | 34868 ft | 484 kts | 24° |
| 2026-05-05 03:24 | 9.20704 | 33.19255 | 34868 ft | 485 kts | 24° |
| 2026-05-05 03:25 | 9.27031 | 33.22075 | 34870 ft | 484 kts | 23° |
| 2026-05-05 03:25 | 9.33426 | 33.24925 | 34870 ft | 484 kts | 24° |
| 2026-05-05 03:26 | 9.39868 | 33.27797 | 34874 ft | 484 kts | 23° |
| 2026-05-05 03:26 | 9.46294 | 33.30664 | 34878 ft | 484 kts | 23° |
| 2026-05-05 03:27 | 9.52696 | 33.33521 | 34878 ft | 484 kts | 23° |
| 2026-05-05 03:27 | 9.59106 | 33.36382 | 34881 ft | 484 kts | 23° |
| 2026-05-05 03:28 | 9.65540 | 33.39255 | 34876 ft | 483 kts | 23° |
| 2026-05-05 03:28 | 9.71968 | 33.42126 | 34868 ft | 483 kts | 23° |
| 2026-05-05 03:29 | 9.78370 | 33.44989 | 34865 ft | 482 kts | 23° |
| 2026-05-05 03:29 | 9.84773 | 33.47852 | 34868 ft | 482 kts | 23° |
| 2026-05-05 03:30 | 9.91190 | 33.50724 | 34865 ft | 482 kts | 23° |
| 2026-05-05 03:30 | 9.97655 | 33.53618 | 34866 ft | 482 kts | 23° |
| 2026-05-05 03:31 | 10.04034 | 33.56471 | 34870 ft | 481 kts | 23° |
| 2026-05-05 03:31 | 10.10401 | 33.59323 | 34876 ft | 482 kts | 23° |
| 2026-05-05 03:32 | 10.16776 | 33.62181 | 34878 ft | 482 kts | 23° |
| 2026-05-05 03:32 | 10.23132 | 33.65031 | 34884 ft | 482 kts | 23° |
| 2026-05-05 03:33 | 10.29517 | 33.67895 | 34886 ft | 482 kts | 23° |
| 2026-05-05 03:33 | 10.35926 | 33.70770 | 34892 ft | 482 kts | 23° |
| 2026-05-05 03:34 | 10.42293 | 33.73626 | 34894 ft | 481 kts | 23° |
| 2026-05-05 03:34 | 10.48683 | 33.76496 | 34901 ft | 481 kts | 23° |
| 2026-05-05 03:35 | 10.55069 | 33.79290 | 34908 ft | 482 kts | 22° |
| 2026-05-05 03:35 | 10.61470 | 33.82069 | 34915 ft | 482 kts | 22° |
| 2026-05-05 03:36 | 10.67873 | 33.84855 | 34912 ft | 481 kts | 22° |
| 2026-05-05 03:36 | 10.74303 | 33.87656 | 34913 ft | 481 kts | 22° |
| 2026-05-05 03:37 | 10.80681 | 33.90437 | 34904 ft | 480 kts | 22° |
| 2026-05-05 03:37 | 10.87035 | 33.93208 | 34907 ft | 480 kts | 22° |
| 2026-05-05 03:38 | 10.93445 | 33.96005 | 34916 ft | 481 kts | 22° |
| 2026-05-05 03:38 | 10.99858 | 33.98804 | 34929 ft | 480 kts | 22° |
| 2026-05-05 03:39 | 11.06236 | 34.01591 | 34945 ft | 480 kts | 22° |
| 2026-05-05 03:39 | 11.12616 | 34.04382 | 34946 ft | 480 kts | 22° |
| 2026-05-05 03:40 | 11.19011 | 34.07178 | 34950 ft | 480 kts | 22° |
| 2026-05-05 03:40 | 11.25414 | 34.09980 | 34943 ft | 481 kts | 22° |
| 2026-05-05 03:41 | 11.31781 | 34.12765 | 34942 ft | 481 kts | 22° |
| 2026-05-05 03:41 | 11.38191 | 34.15572 | 34940 ft | 481 kts | 22° |
| 2026-05-05 03:42 | 11.44586 | 34.18374 | 34936 ft | 482 kts | 22° |
| 2026-05-05 03:42 | 11.50963 | 34.21170 | 34925 ft | 482 kts | 22° |
| 2026-05-05 03:43 | 11.57320 | 34.23959 | 34903 ft | 481 kts | 22° |
| 2026-05-05 03:43 | 11.63704 | 34.26759 | 34890 ft | 482 kts | 22° |
| 2026-05-05 03:44 | 11.70136 | 34.29582 | 34888 ft | 482 kts | 22° |
| 2026-05-05 03:44 | 11.76513 | 34.32383 | 34885 ft | 482 kts | 22° |
| 2026-05-05 03:45 | 11.82938 | 34.35207 | 34886 ft | 483 kts | 22° |
| 2026-05-05 03:45 | 11.89333 | 34.38020 | 34884 ft | 483 kts | 21° |
| 2026-05-05 03:46 | 11.95757 | 34.40845 | 34883 ft | 483 kts | 21° |
| 2026-05-05 03:46 | 12.02159 | 34.43660 | 34882 ft | 483 kts | 22° |
| 2026-05-05 03:47 | 12.08598 | 34.46497 | 34880 ft | 483 kts | 22° |
| 2026-05-05 03:47 | 12.15038 | 34.49335 | 34877 ft | 484 kts | 22° |
| 2026-05-05 03:48 | 12.21451 | 34.52163 | 34874 ft | 483 kts | 21° |
| 2026-05-05 03:48 | 12.27818 | 34.54971 | 34870 ft | 483 kts | 21° |
| 2026-05-05 03:49 | 12.34099 | 34.57741 | 34870 ft | 483 kts | 21° |
| 2026-05-05 03:49 | 12.40299 | 34.60476 | 34865 ft | 483 kts | 21° |
| 2026-05-05 03:50 | 12.46506 | 34.63216 | 34860 ft | 483 kts | 21° |
| 2026-05-05 03:50 | 12.52684 | 34.65948 | 34858 ft | 483 kts | 22° |
| 2026-05-05 03:51 | 12.58885 | 34.68692 | 34857 ft | 483 kts | 21° |
| 2026-05-05 03:51 | 12.64891 | 34.71349 | 34857 ft | 483 kts | 21° |
| 2026-05-05 03:52 | 12.71297 | 34.74184 | 34854 ft | 483 kts | 21° |
| 2026-05-05 03:52 | 12.77668 | 34.77004 | 34853 ft | 483 kts | 21° |
| 2026-05-05 03:53 | 12.84019 | 34.79819 | 34854 ft | 483 kts | 21° |
| 2026-05-05 03:53 | 12.90215 | 34.82568 | 34860 ft | 483 kts | 21° |
| 2026-05-05 03:54 | 12.96454 | 34.85337 | 34863 ft | 483 kts | 21° |
| 2026-05-05 03:54 | 12.99688 | 34.86774 | 34864 ft | 483 kts | 21° |